Terminal Aerodrome Forecast
Issued by NWS Bismarck, ND

Home | Current Version | Previous Version | Graphics & Text | Print | Product List | Glossary On
Versions: 1 2 3 4 5 6 7 8 9 10 11 12 13 14 15
000
FTUS43 KBIS 241002 AAA
TAFISN
TAF AMD
KISN 241002Z 2410/2506 18015KT P6SM SCT120 WS020/19040KT
     FM241300 17011G19KT P6SM SCT120 SCT250
     FM241700 22013KT P6SM SCT120
     FM242000 32013KT P6SM SCT120 BKN150
     FM250200 35009KT P6SM FEW110 FEW200=

USA.gov is the U.S. government's official web portal to all federal, state and local government web resources and services.